sensor_id;sensor_type;location;lat;lon;timestamp;P1;durP1;ratioP1;P2;durP2;ratioP2
65043;SDS011;51617;48.158;16.464;2023-02-16T00:03:09;0.40;;;0.40;;
65043;SDS011;51617;48.158;16.464;2023-02-16T00:05:40;0.40;;;0.40;;
65043;SDS011;51617;48.158;16.464;2023-02-16T00:08:06;0.40;;;0.40;;
65043;SDS011;51617;48.158;16.464;2023-02-16T00:10:32;0.40;;;0.40;;
65043;SDS011;51617;48.158;16.464;2023-02-16T00:15:44;0.40;;;0.40;;
65043;SDS011;51617;48.158;16.464;2023-02-16T00:18:15;0.40;;;0.40;;
65043;SDS011;51617;48.158;16.464;2023-02-16T00:20:42;0.40;;;0.40;;
65043;SDS011;51617;48.158;16.464;2023-02-16T00:23:09;0.40;;;0.40;;
65043;SDS011;51617;48.158;16.464;2023-02-16T00:25:34;0.38;;;0.38;;
65043;SDS011;51617;48.158;16.464;2023-02-16T00:28:04;0.32;;;0.32;;
65043;SDS011;51617;48.158;16.464;2023-02-16T00:30:40;0.30;;;0.30;;
65043;SDS011;51617;48.158;16.464;2023-02-16T00:33:15;0.30;;;0.30;;
65043;SDS011;51617;48.158;16.464;2023-02-16T00:35:43;0.40;;;0.40;;
65043;SDS011;51617;48.158;16.464;2023-02-16T00:38:09;0.40;;;0.40;;
65043;SDS011;51617;48.158;16.464;2023-02-16T00:40:35;0.40;;;0.40;;
65043;SDS011;51617;48.158;16.464;2023-02-16T00:43:01;0.30;;;0.30;;
65043;SDS011;51617;48.158;16.464;2023-02-16T00:45:28;0.40;;;0.40;;
65043;SDS011;51617;48.158;16.464;2023-02-16T00:47:55;0.40;;;0.40;;
65043;SDS011;51617;48.158;16.464;2023-02-16T00:50:28;0.40;;;0.40;;
65043;SDS011;51617;48.158;16.464;2023-02-16T00:52:59;0.40;;;0.40;;
65043;SDS011;51617;48.158;16.464;2023-02-16T00:55:27;0.40;;;0.40;;
65043;SDS011;51617;48.158;16.464;2023-02-16T00:57:58;0.40;;;0.40;;
65043;SDS011;51617;48.158;16.464;2023-02-16T01:00:33;0.40;;;0.40;;
65043;SDS011;51617;48.158;16.464;2023-02-16T01:03:04;0.40;;;0.40;;
65043;SDS011;51617;48.158;16.464;2023-02-16T01:05:32;0.40;;;0.40;;
65043;SDS011;51617;48.158;16.464;2023-02-16T01:07:58;0.40;;;0.40;;
65043;SDS011;51617;48.158;16.464;2023-02-16T01:10:42;0.50;;;0.50;;
65043;SDS011;51617;48.158;16.464;2023-02-16T01:13:28;0.40;;;0.40;;
65043;SDS011;51617;48.158;16.464;2023-02-16T01:15:55;0.32;;;0.32;;
65043;SDS011;51617;48.158;16.464;2023-02-16T01:18:21;0.40;;;0.40;;
65043;SDS011;51617;48.158;16.464;2023-02-16T01:20:48;0.40;;;0.40;;
65043;SDS011;51617;48.158;16.464;2023-02-16T01:23:14;0.30;;;0.30;;
65043;SDS011;51617;48.158;16.464;2023-02-16T01:25:39;0.40;;;0.40;;
65043;SDS011;51617;48.158;16.464;2023-02-16T01:28:15;0.40;;;0.40;;
65043;SDS011;51617;48.158;16.464;2023-02-16T01:30:49;0.40;;;0.40;;
65043;SDS011;51617;48.158;16.464;2023-02-16T01:33:16;0.40;;;0.40;;
65043;SDS011;51617;48.158;16.464;2023-02-16T01:35:42;0.40;;;0.40;;
65043;SDS011;51617;48.158;16.464;2023-02-16T01:38:20;0.40;;;0.40;;
65043;SDS011;51617;48.158;16.464;2023-02-16T01:40:58;0.40;;;0.40;;
65043;SDS011;51617;48.158;16.464;2023-02-16T01:43:50;0.40;;;0.40;;
65043;SDS011;51617;48.158;16.464;2023-02-16T01:46:23;0.40;;;0.40;;
65043;SDS011;51617;48.158;16.464;2023-02-16T01:49:17;0.40;;;0.40;;
65043;SDS011;51617;48.158;16.464;2023-02-16T01:57:20;0.40;;;0.40;;
65043;SDS011;51617;48.158;16.464;2023-02-16T02:02:23;0.40;;;0.40;;
65043;SDS011;51617;48.158;16.464;2023-02-16T02:04:52;0.40;;;0.40;;
65043;SDS011;51617;48.158;16.464;2023-02-16T02:07:42;0.40;;;0.40;;
65043;SDS011;51617;48.158;16.464;2023-02-16T02:10:26;0.40;;;0.40;;
65043;SDS011;51617;48.158;16.464;2023-02-16T02:16:09;0.40;;;0.40;;
65043;SDS011;51617;48.158;16.464;2023-02-16T02:18:35;0.40;;;0.40;;
65043;SDS011;51617;48.158;16.464;2023-02-16T02:36:44;0.40;;;0.40;;
65043;SDS011;51617;48.158;16.464;2023-02-16T02:41:56;0.35;;;0.35;;
65043;SDS011;51617;48.158;16.464;2023-02-16T02:44:32;0.40;;;0.40;;
65043;SDS011;51617;48.158;16.464;2023-02-16T02:47:16;0.40;;;0.40;;
65043;SDS011;51617;48.158;16.464;2023-02-16T02:49:51;0.40;;;0.40;;
65043;SDS011;51617;48.158;16.464;2023-02-16T02:52:18;0.40;;;0.40;;
65043;SDS011;51617;48.158;16.464;2023-02-16T02:57:36;0.40;;;0.40;;
65043;SDS011;51617;48.158;16.464;2023-02-16T03:00:31;0.40;;;0.40;;
65043;SDS011;51617;48.158;16.464;2023-02-16T03:03:24;0.40;;;0.40;;
65043;SDS011;51617;48.158;16.464;2023-02-16T03:05:57;0.40;;;0.40;;
65043;SDS011;51617;48.158;16.464;2023-02-16T03:08:30;0.40;;;0.40;;
65043;SDS011;51617;48.158;16.464;2023-02-16T03:13:59;0.35;;;0.35;;
65043;SDS011;51617;48.158;16.464;2023-02-16T03:16:40;0.40;;;0.40;;
65043;SDS011;51617;48.158;16.464;2023-02-16T03:19:12;0.40;;;0.40;;
65043;SDS011;51617;48.158;16.464;2023-02-16T03:21:58;0.40;;;0.40;;
65043;SDS011;51617;48.158;16.464;2023-02-16T03:24:43;0.40;;;0.40;;
65043;SDS011;51617;48.158;16.464;2023-02-16T03:27:33;0.40;;;0.40;;
65043;SDS011;51617;48.158;16.464;2023-02-16T03:30:21;0.40;;;0.40;;
65043;SDS011;51617;48.158;16.464;2023-02-16T03:32:50;0.40;;;0.40;;
65043;SDS011;51617;48.158;16.464;2023-02-16T03:35:16;0.40;;;0.40;;
65043;SDS011;51617;48.158;16.464;2023-02-16T03:37:43;0.40;;;0.40;;
65043;SDS011;51617;48.158;16.464;2023-02-16T03:40:10;0.40;;;0.40;;
65043;SDS011;51617;48.158;16.464;2023-02-16T03:43:11;0.40;;;0.40;;
65043;SDS011;51617;48.158;16.464;2023-02-16T03:45:38;0.40;;;0.40;;
65043;SDS011;51617;48.158;16.464;2023-02-16T03:48:06;0.40;;;0.40;;
65043;SDS011;51617;48.158;16.464;2023-02-16T03:50:32;0.40;;;0.40;;
65043;SDS011;51617;48.158;16.464;2023-02-16T03:52:58;0.40;;;0.40;;
65043;SDS011;51617;48.158;16.464;2023-02-16T03:58:00;0.30;;;0.30;;
65043;SDS011;51617;48.158;16.464;2023-02-16T04:00:26;0.32;;;0.32;;
65043;SDS011;51617;48.158;16.464;2023-02-16T04:02:52;0.30;;;0.30;;
65043;SDS011;51617;48.158;16.464;2023-02-16T04:05:17;0.38;;;0.38;;
65043;SDS011;51617;48.158;16.464;2023-02-16T04:07:43;0.40;;;0.40;;
65043;SDS011;51617;48.158;16.464;2023-02-16T04:10:09;0.30;;;0.30;;
65043;SDS011;51617;48.158;16.464;2023-02-16T04:12:35;0.40;;;0.40;;
65043;SDS011;51617;48.158;16.464;2023-02-16T04:15:01;0.40;;;0.40;;
65043;SDS011;51617;48.158;16.464;2023-02-16T04:17:34;0.40;;;0.40;;
65043;SDS011;51617;48.158;16.464;2023-02-16T04:20:00;0.40;;;0.40;;
65043;SDS011;51617;48.158;16.464;2023-02-16T04:22:26;0.30;;;0.30;;
65043;SDS011;51617;48.158;16.464;2023-02-16T04:24:52;0.35;;;0.35;;
65043;SDS011;51617;48.158;16.464;2023-02-16T04:27:17;0.30;;;0.30;;
65043;SDS011;51617;48.158;16.464;2023-02-16T04:29:43;0.35;;;0.35;;
65043;SDS011;51617;48.158;16.464;2023-02-16T04:32:09;0.30;;;0.30;;
65043;SDS011;51617;48.158;16.464;2023-02-16T04:34:34;0.40;;;0.40;;
65043;SDS011;51617;48.158;16.464;2023-02-16T04:37:00;0.40;;;0.40;;
65043;SDS011;51617;48.158;16.464;2023-02-16T04:39:26;0.30;;;0.30;;
65043;SDS011;51617;48.158;16.464;2023-02-16T04:41:52;0.30;;;0.30;;
65043;SDS011;51617;48.158;16.464;2023-02-16T04:44:18;0.32;;;0.32;;
65043;SDS011;51617;48.158;16.464;2023-02-16T04:46:43;0.40;;;0.40;;
65043;SDS011;51617;48.158;16.464;2023-02-16T04:49:09;0.40;;;0.40;;
65043;SDS011;51617;48.158;16.464;2023-02-16T04:51:35;0.40;;;0.40;;
65043;SDS011;51617;48.158;16.464;2023-02-16T04:54:01;0.40;;;0.40;;
65043;SDS011;51617;48.158;16.464;2023-02-16T04:56:26;0.30;;;0.30;;
65043;SDS011;51617;48.158;16.464;2023-02-16T04:58:52;0.30;;;0.30;;
65043;SDS011;51617;48.158;16.464;2023-02-16T05:01:20;0.30;;;0.30;;
65043;SDS011;51617;48.158;16.464;2023-02-16T05:03:46;0.40;;;0.40;;
65043;SDS011;51617;48.158;16.464;2023-02-16T05:06:13;0.30;;;0.30;;
65043;SDS011;51617;48.158;16.464;2023-02-16T05:08:38;0.40;;;0.40;;
65043;SDS011;51617;48.158;16.464;2023-02-16T05:11:04;0.30;;;0.30;;
65043;SDS011;51617;48.158;16.464;2023-02-16T05:13:48;0.30;;;0.30;;
65043;SDS011;51617;48.158;16.464;2023-02-16T05:16:33;0.30;;;0.30;;
65043;SDS011;51617;48.158;16.464;2023-02-16T05:18:58;0.30;;;0.30;;
65043;SDS011;51617;48.158;16.464;2023-02-16T05:21:24;0.30;;;0.30;;
65043;SDS011;51617;48.158;16.464;2023-02-16T05:23:59;0.30;;;0.30;;
65043;SDS011;51617;48.158;16.464;2023-02-16T05:26:30;0.35;;;0.35;;
65043;SDS011;51617;48.158;16.464;2023-02-16T05:28:56;0.40;;;0.40;;
65043;SDS011;51617;48.158;16.464;2023-02-16T05:31:23;0.30;;;0.30;;
65043;SDS011;51617;48.158;16.464;2023-02-16T05:33:49;0.30;;;0.30;;
65043;SDS011;51617;48.158;16.464;2023-02-16T05:36:15;0.40;;;0.40;;
65043;SDS011;51617;48.158;16.464;2023-02-16T05:38:41;0.30;;;0.30;;
65043;SDS011;51617;48.158;16.464;2023-02-16T05:41:06;0.30;;;0.30;;
65043;SDS011;51617;48.158;16.464;2023-02-16T05:43:32;0.30;;;0.30;;
65043;SDS011;51617;48.158;16.464;2023-02-16T05:45:58;0.30;;;0.30;;
65043;SDS011;51617;48.158;16.464;2023-02-16T05:48:24;0.30;;;0.30;;
65043;SDS011;51617;48.158;16.464;2023-02-16T05:50:52;0.30;;;0.30;;
65043;SDS011;51617;48.158;16.464;2023-02-16T05:53:18;0.30;;;0.30;;
65043;SDS011;51617;48.158;16.464;2023-02-16T05:55:44;0.30;;;0.30;;
65043;SDS011;51617;48.158;16.464;2023-02-16T05:58:10;0.30;;;0.30;;
65043;SDS011;51617;48.158;16.464;2023-02-16T06:00:35;0.30;;;0.30;;
65043;SDS011;51617;48.158;16.464;2023-02-16T06:03:02;0.30;;;0.30;;
65043;SDS011;51617;48.158;16.464;2023-02-16T06:05:28;0.40;;;0.40;;
65043;SDS011;51617;48.158;16.464;2023-02-16T06:07:54;0.30;;;0.30;;
65043;SDS011;51617;48.158;16.464;2023-02-16T06:10:19;0.30;;;0.30;;
65043;SDS011;51617;48.158;16.464;2023-02-16T06:12:45;0.30;;;0.30;;
65043;SDS011;51617;48.158;16.464;2023-02-16T06:15:11;0.30;;;0.30;;
65043;SDS011;51617;48.158;16.464;2023-02-16T06:17:37;0.30;;;0.30;;
65043;SDS011;51617;48.158;16.464;2023-02-16T06:20:03;0.30;;;0.30;;
65043;SDS011;51617;48.158;16.464;2023-02-16T06:22:29;0.40;;;0.40;;
65043;SDS011;51617;48.158;16.464;2023-02-16T06:24:55;0.30;;;0.30;;
65043;SDS011;51617;48.158;16.464;2023-02-16T06:27:20;0.30;;;0.30;;
65043;SDS011;51617;48.158;16.464;2023-02-16T06:29:46;0.30;;;0.30;;
65043;SDS011;51617;48.158;16.464;2023-02-16T06:32:12;0.30;;;0.30;;
65043;SDS011;51617;48.158;16.464;2023-02-16T06:34:38;0.32;;;0.32;;
65043;SDS011;51617;48.158;16.464;2023-02-16T06:37:03;0.30;;;0.30;;
65043;SDS011;51617;48.158;16.464;2023-02-16T06:39:29;0.30;;;0.30;;
65043;SDS011;51617;48.158;16.464;2023-02-16T06:41:55;0.30;;;0.30;;
65043;SDS011;51617;48.158;16.464;2023-02-16T06:44:20;0.30;;;0.30;;
65043;SDS011;51617;48.158;16.464;2023-02-16T06:46:46;0.30;;;0.30;;
65043;SDS011;51617;48.158;16.464;2023-02-16T06:49:13;0.30;;;0.30;;
65043;SDS011;51617;48.158;16.464;2023-02-16T06:51:42;0.30;;;0.30;;
65043;SDS011;51617;48.158;16.464;2023-02-16T06:54:08;0.30;;;0.30;;
65043;SDS011;51617;48.158;16.464;2023-02-16T06:56:34;0.30;;;0.30;;
65043;SDS011;51617;48.158;16.464;2023-02-16T06:59:00;0.30;;;0.30;;
65043;SDS011;51617;48.158;16.464;2023-02-16T07:01:26;0.40;;;0.40;;
65043;SDS011;51617;48.158;16.464;2023-02-16T07:03:52;0.30;;;0.30;;
65043;SDS011;51617;48.158;16.464;2023-02-16T07:06:20;0.40;;;0.40;;
65043;SDS011;51617;48.158;16.464;2023-02-16T07:08:47;0.30;;;0.30;;
65043;SDS011;51617;48.158;16.464;2023-02-16T07:11:13;0.30;;;0.30;;
65043;SDS011;51617;48.158;16.464;2023-02-16T07:13:38;0.30;;;0.30;;
65043;SDS011;51617;48.158;16.464;2023-02-16T07:16:04;0.30;;;0.30;;
65043;SDS011;51617;48.158;16.464;2023-02-16T07:18:31;0.30;;;0.30;;
65043;SDS011;51617;48.158;16.464;2023-02-16T07:20:57;0.30;;;0.30;;
65043;SDS011;51617;48.158;16.464;2023-02-16T07:23:24;0.30;;;0.30;;
65043;SDS011;51617;48.158;16.464;2023-02-16T07:25:50;0.30;;;0.30;;
65043;SDS011;51617;48.158;16.464;2023-02-16T07:28:16;0.30;;;0.30;;
65043;SDS011;51617;48.158;16.464;2023-02-16T07:30:42;0.40;;;0.40;;
65043;SDS011;51617;48.158;16.464;2023-02-16T07:33:08;0.30;;;0.30;;
65043;SDS011;51617;48.158;16.464;2023-02-16T07:35:34;0.30;;;0.30;;
65043;SDS011;51617;48.158;16.464;2023-02-16T07:38:01;0.30;;;0.30;;
65043;SDS011;51617;48.158;16.464;2023-02-16T07:40:27;0.30;;;0.30;;
65043;SDS011;51617;48.158;16.464;2023-02-16T07:42:53;0.30;;;0.30;;
65043;SDS011;51617;48.158;16.464;2023-02-16T07:45:18;0.30;;;0.30;;
65043;SDS011;51617;48.158;16.464;2023-02-16T07:47:44;0.30;;;0.30;;
65043;SDS011;51617;48.158;16.464;2023-02-16T07:50:10;0.30;;;0.30;;
65043;SDS011;51617;48.158;16.464;2023-02-16T07:52:36;0.30;;;0.30;;
65043;SDS011;51617;48.158;16.464;2023-02-16T07:55:01;0.30;;;0.30;;
65043;SDS011;51617;48.158;16.464;2023-02-16T07:57:28;0.30;;;0.30;;
65043;SDS011;51617;48.158;16.464;2023-02-16T07:59:54;0.30;;;0.30;;
65043;SDS011;51617;48.158;16.464;2023-02-16T08:02:20;0.30;;;0.30;;
65043;SDS011;51617;48.158;16.464;2023-02-16T08:04:47;0.30;;;0.30;;
65043;SDS011;51617;48.158;16.464;2023-02-16T08:07:13;0.30;;;0.30;;
65043;SDS011;51617;48.158;16.464;2023-02-16T08:09:40;0.30;;;0.30;;
65043;SDS011;51617;48.158;16.464;2023-02-16T08:12:09;0.32;;;0.32;;
65043;SDS011;51617;48.158;16.464;2023-02-16T08:14:36;0.40;;;0.40;;
65043;SDS011;51617;48.158;16.464;2023-02-16T08:17:03;0.30;;;0.30;;
65043;SDS011;51617;48.158;16.464;2023-02-16T08:19:30;0.30;;;0.30;;
65043;SDS011;51617;48.158;16.464;2023-02-16T08:21:56;0.30;;;0.30;;
65043;SDS011;51617;48.158;16.464;2023-02-16T08:24:23;0.30;;;0.30;;
65043;SDS011;51617;48.158;16.464;2023-02-16T08:26:49;0.30;;;0.30;;
65043;SDS011;51617;48.158;16.464;2023-02-16T08:29:18;0.30;;;0.30;;
65043;SDS011;51617;48.158;16.464;2023-02-16T08:31:45;0.30;;;0.30;;
65043;SDS011;51617;48.158;16.464;2023-02-16T08:34:12;0.30;;;0.30;;
65043;SDS011;51617;48.158;16.464;2023-02-16T08:36:39;0.30;;;0.30;;
65043;SDS011;51617;48.158;16.464;2023-02-16T08:39:12;0.30;;;0.30;;
65043;SDS011;51617;48.158;16.464;2023-02-16T08:41:39;0.30;;;0.30;;
65043;SDS011;51617;48.158;16.464;2023-02-16T08:44:06;0.30;;;0.30;;
65043;SDS011;51617;48.158;16.464;2023-02-16T08:46:34;0.40;;;0.40;;
65043;SDS011;51617;48.158;16.464;2023-02-16T08:49:03;0.30;;;0.30;;
65043;SDS011;51617;48.158;16.464;2023-02-16T08:51:31;0.30;;;0.30;;
65043;SDS011;51617;48.158;16.464;2023-02-16T08:54:02;0.30;;;0.30;;
65043;SDS011;51617;48.158;16.464;2023-02-16T08:56:29;0.30;;;0.30;;
65043;SDS011;51617;48.158;16.464;2023-02-16T08:58:56;0.30;;;0.30;;
65043;SDS011;51617;48.158;16.464;2023-02-16T09:01:23;0.30;;;0.30;;
65043;SDS011;51617;48.158;16.464;2023-02-16T09:03:49;0.30;;;0.30;;
65043;SDS011;51617;48.158;16.464;2023-02-16T09:06:16;0.30;;;0.30;;
65043;SDS011;51617;48.158;16.464;2023-02-16T09:08:48;0.30;;;0.30;;
65043;SDS011;51617;48.158;16.464;2023-02-16T09:11:18;0.30;;;0.30;;
65043;SDS011;51617;48.158;16.464;2023-02-16T09:13:44;0.30;;;0.30;;
65043;SDS011;51617;48.158;16.464;2023-02-16T09:16:17;0.30;;;0.30;;
65043;SDS011;51617;48.158;16.464;2023-02-16T09:18:46;0.30;;;0.30;;
65043;SDS011;51617;48.158;16.464;2023-02-16T09:21:13;0.30;;;0.30;;
65043;SDS011;51617;48.158;16.464;2023-02-16T09:23:41;0.30;;;0.30;;
65043;SDS011;51617;48.158;16.464;2023-02-16T09:26:11;0.30;;;0.30;;
65043;SDS011;51617;48.158;16.464;2023-02-16T09:28:37;0.30;;;0.30;;
65043;SDS011;51617;48.158;16.464;2023-02-16T09:31:08;0.30;;;0.30;;
65043;SDS011;51617;48.158;16.464;2023-02-16T09:36:29;0.40;;;0.40;;
65043;SDS011;51617;48.158;16.464;2023-02-16T09:38:55;0.30;;;0.30;;
65043;SDS011;51617;48.158;16.464;2023-02-16T09:44:12;0.30;;;0.30;;
65043;SDS011;51617;48.158;16.464;2023-02-16T09:46:40;0.30;;;0.30;;
65043;SDS011;51617;48.158;16.464;2023-02-16T09:49:08;0.30;;;0.30;;
65043;SDS011;51617;48.158;16.464;2023-02-16T09:54:55;0.30;;;0.30;;
65043;SDS011;51617;48.158;16.464;2023-02-16T10:06:20;0.30;;;0.30;;
65043;SDS011;51617;48.158;16.464;2023-02-16T10:09:14;0.38;;;0.38;;
65043;SDS011;51617;48.158;16.464;2023-02-16T10:14:24;0.30;;;0.30;;
65043;SDS011;51617;48.158;16.464;2023-02-16T10:23:01;0.30;;;0.30;;
65043;SDS011;51617;48.158;16.464;2023-02-16T10:25:40;0.30;;;0.30;;
65043;SDS011;51617;48.158;16.464;2023-02-16T10:30:50;0.32;;;0.32;;
65043;SDS011;51617;48.158;16.464;2023-02-16T10:36:02;0.30;;;0.30;;
65043;SDS011;51617;48.158;16.464;2023-02-16T10:38:44;0.30;;;0.30;;
65043;SDS011;51617;48.158;16.464;2023-02-16T10:41:29;0.30;;;0.30;;
65043;SDS011;51617;48.158;16.464;2023-02-16T10:46:45;0.30;;;0.30;;
65043;SDS011;51617;48.158;16.464;2023-02-16T10:49:16;0.30;;;0.30;;
65043;SDS011;51617;48.158;16.464;2023-02-16T10:51:45;0.30;;;0.30;;
65043;SDS011;51617;48.158;16.464;2023-02-16T10:54:15;0.30;;;0.30;;
65043;SDS011;51617;48.158;16.464;2023-02-16T10:56:57;0.30;;;0.30;;
65043;SDS011;51617;48.158;16.464;2023-02-16T10:59:39;0.30;;;0.30;;
65043;SDS011;51617;48.158;16.464;2023-02-16T11:04:47;0.30;;;0.30;;
65043;SDS011;51617;48.158;16.464;2023-02-16T11:07:23;0.30;;;0.30;;
65043;SDS011;51617;48.158;16.464;2023-02-16T11:09:51;0.30;;;0.30;;
65043;SDS011;51617;48.158;16.464;2023-02-16T11:12:29;0.35;;;0.35;;
65043;SDS011;51617;48.158;16.464;2023-02-16T11:17:31;0.30;;;0.30;;
65043;SDS011;51617;48.158;16.464;2023-02-16T11:20:23;0.30;;;0.30;;
65043;SDS011;51617;48.158;16.464;2023-02-16T11:23:11;0.30;;;0.30;;
65043;SDS011;51617;48.158;16.464;2023-02-16T11:25:38;0.30;;;0.20;;
65043;SDS011;51617;48.158;16.464;2023-02-16T11:28:04;0.25;;;0.25;;
65043;SDS011;51617;48.158;16.464;2023-02-16T11:30:31;0.30;;;0.30;;
65043;SDS011;51617;48.158;16.464;2023-02-16T11:33:01;0.30;;;0.30;;
65043;SDS011;51617;48.158;16.464;2023-02-16T11:35:42;0.32;;;0.32;;
65043;SDS011;51617;48.158;16.464;2023-02-16T11:38:29;0.30;;;0.30;;
65043;SDS011;51617;48.158;16.464;2023-02-16T11:40:57;0.30;;;0.30;;
65043;SDS011;51617;48.158;16.464;2023-02-16T11:43:26;0.30;;;0.30;;
65043;SDS011;51617;48.158;16.464;2023-02-16T11:48:31;0.30;;;0.30;;
65043;SDS011;51617;48.158;16.464;2023-02-16T11:50:59;0.30;;;0.30;;
65043;SDS011;51617;48.158;16.464;2023-02-16T11:53:28;0.30;;;0.30;;
65043;SDS011;51617;48.158;16.464;2023-02-16T11:56:13;0.30;;;0.30;;
65043;SDS011;51617;48.158;16.464;2023-02-16T11:58:42;0.30;;;0.30;;
65043;SDS011;51617;48.158;16.464;2023-02-16T12:01:22;0.30;;;0.30;;
65043;SDS011;51617;48.158;16.464;2023-02-16T12:07:21;0.30;;;0.30;;
65043;SDS011;51617;48.158;16.464;2023-02-16T12:10:11;0.30;;;0.30;;
65043;SDS011;51617;48.158;16.464;2023-02-16T12:16:12;0.30;;;0.30;;
65043;SDS011;51617;48.158;16.464;2023-02-16T12:18:30;0.30;;;0.30;;
65043;SDS011;51617;48.158;16.464;2023-02-16T12:34:47;0.30;;;0.30;;
65043;SDS011;51617;48.158;16.464;2023-02-16T12:40:02;0.30;;;0.30;;
65043;SDS011;51617;48.158;16.464;2023-02-16T12:43:08;0.20;;;0.20;;
65043;SDS011;51617;48.158;16.464;2023-02-16T12:45:46;0.30;;;0.30;;
65043;SDS011;51617;48.158;16.464;2023-02-16T12:50:50;0.20;;;0.20;;
65043;SDS011;51617;48.158;16.464;2023-02-16T12:53:41;0.30;;;0.30;;
65043;SDS011;51617;48.158;16.464;2023-02-16T12:56:18;0.20;;;0.20;;
65043;SDS011;51617;48.158;16.464;2023-02-16T12:58:50;0.20;;;0.20;;
65043;SDS011;51617;48.158;16.464;2023-02-16T13:01:25;0.30;;;0.30;;
65043;SDS011;51617;48.158;16.464;2023-02-16T13:04:14;0.22;;;0.22;;
65043;SDS011;51617;48.158;16.464;2023-02-16T13:09:43;0.20;;;0.20;;
65043;SDS011;51617;48.158;16.464;2023-02-16T13:14:56;0.30;;;0.30;;
65043;SDS011;51617;48.158;16.464;2023-02-16T13:17:35;0.30;;;0.30;;
65043;SDS011;51617;48.158;16.464;2023-02-16T13:20:11;0.28;;;0.28;;
65043;SDS011;51617;48.158;16.464;2023-02-16T13:25:35;0.20;;;0.20;;
65043;SDS011;51617;48.158;16.464;2023-02-16T13:28:47;0.20;;;0.20;;
65043;SDS011;51617;48.158;16.464;2023-02-16T13:34:59;0.30;;;0.30;;
65043;SDS011;51617;48.158;16.464;2023-02-16T13:43:35;0.30;;;0.30;;
65043;SDS011;51617;48.158;16.464;2023-02-16T13:46:24;0.30;;;0.30;;
65043;SDS011;51617;48.158;16.464;2023-02-16T13:48:59;0.22;;;0.22;;
65043;SDS011;51617;48.158;16.464;2023-02-16T13:51:26;0.30;;;0.30;;
65043;SDS011;51617;48.158;16.464;2023-02-16T13:56:34;0.20;;;0.20;;
65043;SDS011;51617;48.158;16.464;2023-02-16T14:01:48;0.30;;;0.30;;
65043;SDS011;51617;48.158;16.464;2023-02-16T14:06:49;0.20;;;0.20;;
65043;SDS011;51617;48.158;16.464;2023-02-16T14:12:03;0.30;;;0.30;;
65043;SDS011;51617;48.158;16.464;2023-02-16T14:35:42;0.30;;;0.30;;
65043;SDS011;51617;48.158;16.464;2023-02-16T14:38:16;0.30;;;0.30;;
65043;SDS011;51617;48.158;16.464;2023-02-16T14:40:55;0.30;;;0.30;;
65043;SDS011;51617;48.158;16.464;2023-02-16T15:09:00;0.20;;;0.20;;
65043;SDS011;51617;48.158;16.464;2023-02-16T15:11:36;0.20;;;0.20;;
65043;SDS011;51617;48.158;16.464;2023-02-16T15:14:33;0.30;;;0.30;;
65043;SDS011;51617;48.158;16.464;2023-02-16T15:17:05;0.20;;;0.20;;
65043;SDS011;51617;48.158;16.464;2023-02-16T15:19:32;0.30;;;0.30;;
65043;SDS011;51617;48.158;16.464;2023-02-16T15:22:16;0.30;;;0.20;;
65043;SDS011;51617;48.158;16.464;2023-02-16T15:24:42;0.30;;;0.20;;
65043;SDS011;51617;48.158;16.464;2023-02-16T15:27:18;0.20;;;0.20;;
65043;SDS011;51617;48.158;16.464;2023-02-16T15:29:48;0.30;;;0.20;;
65043;SDS011;51617;48.158;16.464;2023-02-16T15:32:31;0.20;;;0.20;;
65043;SDS011;51617;48.158;16.464;2023-02-16T15:34:57;0.30;;;0.30;;
65043;SDS011;51617;48.158;16.464;2023-02-16T15:37:27;0.20;;;0.20;;
65043;SDS011;51617;48.158;16.464;2023-02-16T15:40:10;0.20;;;0.20;;
65043;SDS011;51617;48.158;16.464;2023-02-16T15:42:51;0.30;;;0.30;;
65043;SDS011;51617;48.158;16.464;2023-02-16T15:45:26;0.20;;;0.20;;
65043;SDS011;51617;48.158;16.464;2023-02-16T15:48:07;0.30;;;0.28;;
65043;SDS011;51617;48.158;16.464;2023-02-16T15:50:47;0.20;;;0.20;;
65043;SDS011;51617;48.158;16.464;2023-02-16T15:53:21;0.20;;;0.20;;
65043;SDS011;51617;48.158;16.464;2023-02-16T15:55:57;0.30;;;0.30;;
65043;SDS011;51617;48.158;16.464;2023-02-16T15:58:24;0.20;;;0.20;;
65043;SDS011;51617;48.158;16.464;2023-02-16T16:00:50;0.30;;;0.30;;
65043;SDS011;51617;48.158;16.464;2023-02-16T16:03:18;0.30;;;0.30;;
65043;SDS011;51617;48.158;16.464;2023-02-16T16:05:54;0.30;;;0.30;;
65043;SDS011;51617;48.158;16.464;2023-02-16T16:08:24;0.20;;;0.20;;
65043;SDS011;51617;48.158;16.464;2023-02-16T16:10:52;0.30;;;0.30;;
65043;SDS011;51617;48.158;16.464;2023-02-16T16:13:25;0.30;;;0.30;;
65043;SDS011;51617;48.158;16.464;2023-02-16T16:15:54;0.20;;;0.20;;
65043;SDS011;51617;48.158;16.464;2023-02-16T16:23:37;0.30;;;0.30;;
65043;SDS011;51617;48.158;16.464;2023-02-16T16:26:25;0.30;;;0.30;;
65043;SDS011;51617;48.158;16.464;2023-02-16T16:34:00;0.22;;;0.22;;
65043;SDS011;51617;48.158;16.464;2023-02-16T16:36:52;0.30;;;0.30;;
65043;SDS011;51617;48.158;16.464;2023-02-16T16:39:22;0.30;;;0.30;;
65043;SDS011;51617;48.158;16.464;2023-02-16T16:44:37;0.30;;;0.30;;
65043;SDS011;51617;48.158;16.464;2023-02-16T16:57:58;0.30;;;0.30;;
65043;SDS011;51617;48.158;16.464;2023-02-16T17:00:34;0.30;;;0.30;;
65043;SDS011;51617;48.158;16.464;2023-02-16T17:03:03;0.30;;;0.30;;
65043;SDS011;51617;48.158;16.464;2023-02-16T17:05:32;0.30;;;0.30;;
65043;SDS011;51617;48.158;16.464;2023-02-16T17:07:59;0.30;;;0.30;;
65043;SDS011;51617;48.158;16.464;2023-02-16T17:10:26;0.30;;;0.30;;
65043;SDS011;51617;48.158;16.464;2023-02-16T17:12:54;0.30;;;0.30;;
65043;SDS011;51617;48.158;16.464;2023-02-16T17:18:03;0.32;;;0.32;;
65043;SDS011;51617;48.158;16.464;2023-02-16T17:20:30;0.30;;;0.30;;
65043;SDS011;51617;48.158;16.464;2023-02-16T17:22:57;0.30;;;0.30;;
65043;SDS011;51617;48.158;16.464;2023-02-16T17:25:28;0.30;;;0.30;;
65043;SDS011;51617;48.158;16.464;2023-02-16T17:27:55;0.30;;;0.30;;
65043;SDS011;51617;48.158;16.464;2023-02-16T17:30:21;0.30;;;0.30;;
65043;SDS011;51617;48.158;16.464;2023-02-16T17:32:47;0.30;;;0.30;;
65043;SDS011;51617;48.158;16.464;2023-02-16T17:35:13;0.30;;;0.30;;
65043;SDS011;51617;48.158;16.464;2023-02-16T17:37:39;0.30;;;0.30;;
65043;SDS011;51617;48.158;16.464;2023-02-16T17:40:09;0.30;;;0.30;;
65043;SDS011;51617;48.158;16.464;2023-02-16T17:42:41;0.30;;;0.30;;
65043;SDS011;51617;48.158;16.464;2023-02-16T17:45:08;0.30;;;0.30;;
65043;SDS011;51617;48.158;16.464;2023-02-16T17:47:34;0.30;;;0.30;;
65043;SDS011;51617;48.158;16.464;2023-02-16T17:50:00;0.30;;;0.30;;
65043;SDS011;51617;48.158;16.464;2023-02-16T17:52:28;0.30;;;0.30;;
65043;SDS011;51617;48.158;16.464;2023-02-16T17:54:54;0.30;;;0.30;;
65043;SDS011;51617;48.158;16.464;2023-02-16T17:57:20;0.30;;;0.30;;
65043;SDS011;51617;48.158;16.464;2023-02-16T17:59:51;0.40;;;0.40;;
65043;SDS011;51617;48.158;16.464;2023-02-16T18:02:18;0.30;;;0.30;;
65043;SDS011;51617;48.158;16.464;2023-02-16T18:04:44;0.30;;;0.30;;
65043;SDS011;51617;48.158;16.464;2023-02-16T18:07:13;0.40;;;0.40;;
65043;SDS011;51617;48.158;16.464;2023-02-16T18:09:40;0.30;;;0.30;;
65043;SDS011;51617;48.158;16.464;2023-02-16T18:12:06;0.30;;;0.30;;
65043;SDS011;51617;48.158;16.464;2023-02-16T18:14:32;0.30;;;0.30;;
65043;SDS011;51617;48.158;16.464;2023-02-16T18:17:00;0.40;;;0.40;;
65043;SDS011;51617;48.158;16.464;2023-02-16T18:19:28;0.30;;;0.30;;
65043;SDS011;51617;48.158;16.464;2023-02-16T18:21:55;0.30;;;0.30;;
65043;SDS011;51617;48.158;16.464;2023-02-16T18:24:21;0.30;;;0.30;;
65043;SDS011;51617;48.158;16.464;2023-02-16T18:26:49;0.35;;;0.35;;